ルクセンブルク の空港の天気 - METARとTAF

ルクセンブルク-フィンデル空港 ( ELLX / LUX ) - ルクセンブルク ルクセンブルク
飛行場実況気象(Metar)
観測時間02/05 20:20 CET (02/05 19:20 UTC)
風向・風速北北東 7m/s
視程10km以上
天気現象
全天の8割程度の雲 雲底高度 550m
気温4℃
湿度81%
気圧1037hPa
METARELLX 051920Z 02013KT 9999 BKN018 04/01 Q1037 NOSIG
過去の天気等 Google飛行場航空写真 Wunderground天気予報

過去48時間のMETAR

飛行場予報(TAF)
発表時間: 2/05 18:00 CET (2/05 17:00 UTC)
予報対象時間: 5日19時 CET ~ 7日1時 CET
風向・風速北 6m/s 瞬間風速 11m/s
視程10km以上
全天の8割程度の雲 雲底高度 610m
5日19時 CET ~ 5日22時 CET に一時的に
視程7000m
天気現象弱いしゅう雨
全天の8割程度の雲 雲底高度 370m
5日22時 CET ~ 5日24時 CET に徐々に
風向・風速北北東 4m/s
6日0時 CET ~ 6日7時 CET に 確率 30% で一時的に
全天の8割程度の雲 雲底高度 240m
TAF ELLX 051700Z 0518/0624 36012G22KT 9999 BKN020
TEMPO 0518/0521 7000 -SHRA BKN012
BECMG 0521/0523 03008KT
PROB30 TEMPO 0523/0606 BKN008